createdAt,value
2022-09-20T00:01:48.501Z,7.69
2022-09-20T00:04:47.571Z,7.73
2022-09-20T00:07:47.459Z,7.66
2022-09-20T00:10:44.292Z,7.72
2022-09-20T00:13:43.708Z,7.78
2022-09-20T00:16:42.066Z,7.67
2022-09-20T00:19:39.000Z,7.59
2022-09-20T00:22:35.794Z,7.62
2022-09-20T00:25:33.361Z,7.72
2022-09-20T00:28:31.444Z,7.82
2022-09-20T00:31:28.362Z,7.78
2022-09-20T00:34:43.980Z,7.65
2022-09-20T00:37:42.529Z,7.75
2022-09-20T00:40:44.622Z,7.71
2022-09-20T00:43:45.142Z,7.66
2022-09-20T00:46:45.158Z,7.39
2022-09-20T00:49:42.015Z,7.27
2022-09-20T00:52:39.812Z,7.48
2022-09-20T00:55:42.963Z,7.16
2022-09-20T00:59:04.619Z,7.34
2022-09-20T01:02:16.076Z,7.45
2022-09-20T01:05:15.497Z,7.42
2022-09-20T01:08:13.575Z,7.29
2022-09-20T01:11:10.366Z,7.28
2022-09-20T01:14:07.692Z,7.11
2022-09-20T01:17:06.735Z,7.09
2022-09-20T01:20:35.892Z,7.26
2022-09-20T01:23:51.698Z,7.34
2022-09-20T01:27:17.094Z,7.48
2022-09-20T01:30:23.594Z,7.42
2022-09-20T01:33:53.310Z,7.46
2022-09-20T01:37:04.695Z,7.45
2022-09-20T01:40:16.999Z,7.36
2022-09-20T01:43:31.613Z,7.34
2022-09-20T01:46:34.677Z,7.34
2022-09-20T01:49:55.979Z,7.32
2022-09-20T01:53:15.415Z,7.51
2022-09-20T01:56:37.273Z,7.37
2022-09-20T01:59:46.400Z,7.36
2022-09-20T02:03:21.775Z,7.33
2022-09-20T02:07:19.521Z,7.53
2022-09-20T02:10:41.789Z,7.30
2022-09-20T02:13:50.307Z,7.37
2022-09-20T02:16:57.667Z,7.36
2022-09-20T02:20:07.031Z,7.33
2022-09-20T02:23:19.712Z,7.30
2022-09-20T02:26:44.243Z,7.30
2022-09-20T02:30:02.044Z,7.23
2022-09-20T02:33:31.298Z,7.31
2022-09-20T02:36:51.354Z,7.28
2022-09-20T02:40:20.184Z,7.00
2022-09-20T02:43:41.611Z,7.16
2022-09-20T02:46:56.000Z,7.28
2022-09-20T02:50:35.109Z,7.30
2022-09-20T02:54:18.308Z,7.19
2022-09-20T02:57:42.476Z,7.24
2022-09-20T03:01:21.450Z,7.27
2022-09-20T03:04:56.522Z,7.26
2022-09-20T03:08:33.225Z,7.29
2022-09-20T03:11:49.307Z,7.27
2022-09-20T03:15:04.670Z,7.31
2022-09-20T03:18:15.497Z,7.20
2022-09-20T03:22:03.361Z,7.30
2022-09-20T03:25:22.375Z,7.30
2022-09-20T03:29:00.318Z,7.25
2022-09-20T03:32:50.861Z,7.27
2022-09-20T03:36:27.111Z,7.32
2022-09-20T03:39:53.628Z,7.31
2022-09-20T03:42:54.175Z,7.35
2022-09-20T03:46:19.689Z,7.40
2022-09-20T03:49:53.943Z,7.29
2022-09-20T03:52:56.698Z,7.31
2022-09-20T03:56:30.920Z,7.39
2022-09-20T04:00:25.051Z,7.51
2022-09-20T04:03:56.191Z,7.38
2022-09-20T04:07:35.866Z,7.39
2022-09-20T04:10:51.524Z,7.40
2022-09-20T04:14:02.905Z,7.45
2022-09-20T04:17:40.989Z,7.32
2022-09-20T04:20:46.127Z,7.32
2022-09-20T04:24:01.762Z,7.21
2022-09-20T04:27:42.824Z,7.25
2022-09-20T04:30:43.944Z,7.21
2022-09-20T04:33:45.515Z,7.09
2022-09-20T04:37:03.840Z,6.95
2022-09-20T04:40:36.396Z,7.06
2022-09-20T04:44:13.954Z,7.00
2022-09-20T04:47:58.303Z,6.97
2022-09-20T04:51:19.604Z,6.90
2022-09-20T04:55:24.156Z,6.90
2022-09-20T04:58:36.248Z,7.02
2022-09-20T05:02:20.302Z,6.82
2022-09-20T05:06:03.082Z,6.90
2022-09-20T05:09:43.047Z,6.74
2022-09-20T05:12:54.650Z,6.73
2022-09-20T05:16:24.870Z,6.97
2022-09-20T05:19:52.533Z,6.75
2022-09-20T05:23:22.339Z,6.82
2022-09-20T05:26:46.211Z,6.99
2022-09-20T05:30:04.994Z,6.97
2022-09-20T05:33:35.347Z,7.12
2022-09-20T05:36:57.365Z,6.89
2022-09-20T05:40:30.432Z,7.06
2022-09-20T05:43:33.571Z,7.07
2022-09-20T05:47:10.942Z,7.01
2022-09-20T05:50:56.186Z,7.26
2022-09-20T05:54:36.579Z,7.31
2022-09-20T05:58:23.960Z,7.29
2022-09-20T06:01:26.955Z,7.27
2022-09-20T06:04:39.981Z,7.34
2022-09-20T06:08:18.589Z,7.37
2022-09-20T06:11:49.076Z,7.39
2022-09-20T06:15:03.249Z,7.53
2022-09-20T06:18:43.852Z,7.44
2022-09-20T06:22:12.320Z,7.38
2022-09-20T06:25:08.982Z,7.55
2022-09-20T06:28:20.756Z,7.63
2022-09-20T06:31:18.310Z,7.64
2022-09-20T06:34:15.857Z,7.64
2022-09-20T06:38:12.962Z,7.79
2022-09-20T06:41:28.304Z,7.82
2022-09-20T06:44:25.088Z,7.87
2022-09-20T06:47:23.159Z,7.85
2022-09-20T06:50:20.354Z,7.79
2022-09-20T06:53:23.674Z,7.83
2022-09-20T06:56:25.144Z,7.68
2022-09-20T06:59:21.946Z,7.76
2022-09-20T07:02:18.923Z,7.69
2022-09-20T07:05:17.643Z,7.62
2022-09-20T07:08:14.434Z,7.67
2022-09-20T07:11:17.461Z,7.61
2022-09-20T07:14:15.654Z,7.68
2022-09-20T07:17:13.254Z,7.60
2022-09-20T07:20:10.238Z,7.70
2022-09-20T07:23:07.296Z,7.72
2022-09-20T07:26:04.494Z,7.84
2022-09-20T07:29:02.120Z,8.00
2022-09-20T07:31:59.023Z,7.78
2022-09-20T07:34:56.281Z,7.78
2022-09-20T07:37:59.171Z,7.90
2022-09-20T07:41:02.277Z,7.90
2022-09-20T07:44:19.063Z,8.10
2022-09-20T07:47:15.918Z,8.44
2022-09-20T07:50:13.279Z,8.64
2022-09-20T07:53:10.084Z,8.22
2022-09-20T07:56:16.192Z,8.26
2022-09-20T07:59:13.727Z,8.45
2022-09-20T08:02:15.735Z,8.55
2022-09-20T08:05:12.644Z,8.42
2022-09-20T08:08:09.595Z,8.49
2022-09-20T08:11:10.680Z,8.58
2022-09-20T08:14:09.091Z,8.44
2022-09-20T08:17:06.224Z,8.21
2022-09-20T08:20:03.202Z,8.21
2022-09-20T08:23:22.066Z,8.26
2022-09-20T08:26:21.015Z,8.46
2022-09-20T08:29:17.884Z,8.27
2022-09-20T08:32:14.820Z,8.51
2022-09-20T08:35:11.833Z,8.58
2022-09-20T08:42:12.876Z,8.80
2022-09-20T08:45:23.356Z,8.80
2022-09-20T08:48:33.867Z,8.90
2022-09-20T08:51:35.602Z,8.90
2022-09-20T08:54:34.788Z,8.95
2022-09-20T08:57:33.681Z,9.00
2022-09-20T09:00:33.109Z,9.15
2022-09-20T09:03:29.905Z,9.25
2022-09-20T09:06:27.036Z,9.17
2022-09-20T09:09:27.560Z,9.15
2022-09-20T09:12:33.962Z,9.16
2022-09-20T09:15:35.590Z,9.44
2022-09-20T09:18:37.486Z,10.59
2022-09-20T09:21:34.290Z,9.89
2022-09-20T09:24:31.462Z,9.79
2022-09-20T09:27:28.275Z,9.74
2022-09-20T09:30:32.872Z,10.39
2022-09-20T09:33:33.576Z,10.52
2022-09-20T09:36:30.993Z,10.28
2022-09-20T09:39:32.868Z,10.17
2022-09-20T09:42:29.732Z,9.89
2022-09-20T09:45:40.254Z,9.75
2022-09-20T09:48:39.726Z,9.45
2022-09-20T09:51:37.578Z,9.33
2022-09-20T09:54:44.559Z,9.16
2022-09-20T09:57:59.624Z,9.07
2022-09-20T10:00:59.662Z,9.35
2022-09-20T10:04:27.722Z,9.08
2022-09-20T10:07:30.556Z,9.17
2022-09-20T10:11:23.262Z,9.06
2022-09-20T10:14:41.180Z,9.21
2022-09-20T10:17:57.349Z,9.18
2022-09-20T10:21:19.347Z,9.32
2022-09-20T10:24:34.712Z,10.10
2022-09-20T10:28:10.670Z,11.26
2022-09-20T10:31:35.550Z,11.67
2022-09-20T10:35:23.352Z,12.07
2022-09-20T10:38:37.204Z,11.86
2022-09-20T10:42:27.794Z,11.21
2022-09-20T10:49:41.296Z,10.28
2022-09-20T10:52:56.824Z,9.91
2022-09-20T10:56:26.132Z,10.86
2022-09-20T11:00:03.518Z,12.35
2022-09-20T11:04:04.784Z,11.73
2022-09-20T11:07:19.682Z,12.43
2022-09-20T11:10:24.232Z,12.81
2022-09-20T11:13:53.136Z,12.28
2022-09-20T11:17:16.655Z,11.09
2022-09-20T11:20:26.212Z,10.92
2022-09-20T11:23:37.408Z,10.37
2022-09-20T11:27:13.691Z,10.43
2022-09-20T11:30:21.975Z,9.82
2022-09-20T11:33:41.532Z,9.92
2022-09-20T11:37:03.335Z,10.41
2022-09-20T11:40:14.627Z,11.56
2022-09-20T11:43:14.782Z,12.21
2022-09-20T11:46:21.465Z,12.62
2022-09-20T11:50:03.108Z,13.08
2022-09-20T11:53:20.484Z,13.46
2022-09-20T11:56:27.624Z,12.67
2022-09-20T11:59:52.431Z,12.70
2022-09-20T12:02:54.018Z,13.73
2022-09-20T12:06:03.366Z,13.44
2022-09-20T12:09:22.882Z,13.95
2022-09-20T12:12:37.694Z,11.95
2022-09-20T12:15:39.402Z,11.98
2022-09-20T12:19:02.813Z,11.63
2022-09-20T12:21:59.559Z,11.71
2022-09-20T12:25:39.769Z,11.48
2022-09-20T12:28:42.439Z,12.34
2022-09-20T12:31:47.772Z,12.88
2022-09-20T12:34:44.963Z,12.73
2022-09-20T12:37:42.336Z,13.26
2022-09-20T12:41:03.838Z,11.74
2022-09-20T12:44:22.134Z,11.73
2022-09-20T12:47:23.934Z,11.48
2022-09-20T12:50:41.372Z,12.41
2022-09-20T12:53:38.218Z,13.29
2022-09-20T12:56:40.999Z,13.50
2022-09-20T12:59:37.813Z,13.38
2022-09-20T13:02:52.963Z,12.10
2022-09-20T13:06:08.783Z,12.86
2022-09-20T13:09:08.933Z,13.54
2022-09-20T13:12:06.351Z,13.74
2022-09-20T13:15:05.998Z,13.87
2022-09-20T13:18:05.522Z,13.83
2022-09-20T13:21:06.880Z,13.59
2022-09-20T13:24:05.236Z,12.98
2022-09-20T13:27:09.430Z,12.39
2022-09-20T13:30:28.316Z,12.33
2022-09-20T13:33:25.605Z,11.63
2022-09-20T13:36:29.987Z,11.81
2022-09-20T13:39:32.242Z,11.31
2022-09-20T13:42:31.843Z,11.46
2022-09-20T13:45:33.697Z,11.10
2022-09-20T13:48:30.905Z,11.34
2022-09-20T13:51:28.602Z,10.82
2022-09-20T13:54:33.058Z,10.62
2022-09-20T13:57:30.627Z,10.60
2022-09-20T14:00:29.093Z,10.56
2022-09-20T14:03:28.596Z,9.92
2022-09-20T14:06:28.179Z,9.71
2022-09-20T14:09:36.768Z,9.59
2022-09-20T14:12:34.139Z,9.60
2022-09-20T14:15:43.537Z,10.09
2022-09-20T14:18:43.022Z,10.82
2022-09-20T14:21:40.092Z,11.04
2022-09-20T14:24:37.416Z,11.22
2022-09-20T14:27:34.205Z,11.36
2022-09-20T14:30:36.903Z,11.84
2022-09-20T14:33:34.074Z,12.10
2022-09-20T14:36:31.245Z,11.34
2022-09-20T14:39:28.265Z,11.65
2022-09-20T14:42:36.382Z,11.39
2022-09-20T14:45:43.052Z,11.15
2022-09-20T14:48:41.938Z,10.89
2022-09-20T14:51:38.982Z,10.67
2022-09-20T14:54:35.917Z,10.63
2022-09-20T14:57:32.872Z,10.55
2022-09-20T15:00:30.076Z,10.70
2022-09-20T15:03:38.958Z,10.75
2022-09-20T15:06:40.050Z,10.71
2022-09-20T15:09:37.333Z,10.91
2022-09-20T15:12:34.129Z,11.27
2022-09-20T15:15:32.100Z,11.12
2022-09-20T15:18:37.024Z,11.09
2022-09-20T15:21:33.820Z,10.88
2022-09-20T15:24:30.718Z,10.64
2022-09-20T15:27:28.438Z,10.59
2022-09-20T15:30:25.390Z,10.26
2022-09-20T15:33:22.491Z,9.60
2022-09-20T15:36:19.291Z,9.59
2022-09-20T15:39:16.685Z,9.45
2022-09-20T15:42:13.761Z,9.45
2022-09-20T15:45:12.218Z,9.46
2022-09-20T15:48:11.455Z,9.41
2022-09-20T15:51:11.342Z,9.49
2022-09-20T15:54:13.098Z,9.57
2022-09-20T15:57:09.894Z,9.55
2022-09-20T16:00:08.082Z,9.43
2022-09-20T16:03:04.931Z,9.35
2022-09-20T16:06:05.307Z,9.26
2022-09-20T16:09:02.178Z,9.34
2022-09-20T16:12:00.288Z,9.30
2022-09-20T16:14:57.073Z,9.28
2022-09-20T16:18:12.303Z,9.25
2022-09-20T16:21:11.992Z,9.27
2022-09-20T16:24:10.062Z,9.26
2022-09-20T16:27:08.477Z,9.24
2022-09-20T16:30:06.114Z,9.25
2022-09-20T16:33:05.504Z,9.16
2022-09-20T16:36:02.476Z,9.15
2022-09-20T16:38:59.705Z,9.08
2022-09-20T16:42:03.551Z,9.06
2022-09-20T16:45:00.380Z,9.04
2022-09-20T16:47:58.069Z,8.70
2022-09-20T16:50:54.944Z,8.66
2022-09-20T16:53:56.019Z,8.41
2022-09-20T16:56:52.853Z,8.42
2022-09-20T16:59:51.793Z,8.44
2022-09-20T17:02:52.264Z,8.53
2022-09-20T17:05:49.032Z,8.38
2022-09-20T17:08:46.776Z,8.34
2022-09-20T17:11:47.254Z,8.33
2022-09-20T17:14:44.058Z,8.34
2022-09-20T17:17:42.164Z,8.23
2022-09-20T17:20:40.518Z,8.10
2022-09-20T17:23:37.363Z,7.78
2022-09-20T17:26:40.309Z,7.83
2022-09-20T17:29:37.116Z,7.77
2022-09-20T17:32:33.935Z,7.82
2022-09-20T17:35:30.879Z,7.61
2022-09-20T17:38:30.993Z,7.72
2022-09-20T17:41:29.389Z,7.69
2022-09-20T17:44:27.442Z,7.86
2022-09-20T17:47:24.873Z,7.73
2022-09-20T17:50:21.708Z,7.38
2022-09-20T17:53:18.487Z,7.33
2022-09-20T17:56:15.680Z,7.44
2022-09-20T17:59:17.262Z,7.41
2022-09-20T18:02:14.040Z,7.40
2022-09-20T18:05:10.827Z,7.17
2022-09-20T18:08:07.817Z,7.02
2022-09-20T18:11:04.937Z,6.92
2022-09-20T18:14:03.853Z,6.96
2022-09-20T18:17:03.834Z,7.01
2022-09-20T18:20:00.666Z,6.85
2022-09-20T18:22:57.467Z,6.62
2022-09-20T18:26:12.604Z,6.72
2022-09-20T18:29:12.601Z,6.62
2022-09-20T18:32:09.461Z,6.55
2022-09-20T18:35:06.509Z,6.47
2022-09-20T18:38:03.346Z,6.39
2022-09-20T18:41:01.614Z,6.51
2022-09-20T18:43:58.969Z,6.59
2022-09-20T18:46:55.800Z,6.61
2022-09-20T18:49:52.628Z,6.47
2022-09-20T18:52:51.144Z,6.44
2022-09-20T18:55:49.810Z,6.62
2022-09-20T18:58:47.386Z,6.32
2022-09-20T19:01:50.432Z,6.24
2022-09-20T19:05:28.191Z,6.27
2022-09-20T19:08:34.793Z,6.43
2022-09-20T19:11:39.328Z,6.68
2022-09-20T19:14:57.200Z,6.57
2022-09-20T19:18:35.637Z,6.17
2022-09-20T19:21:54.708Z,5.99
2022-09-20T19:25:20.438Z,5.99
2022-09-20T19:28:17.446Z,5.79
2022-09-20T19:31:33.751Z,5.99
2022-09-20T19:34:32.530Z,6.13
2022-09-20T19:38:23.622Z,5.95
2022-09-20T19:41:26.540Z,5.85
2022-09-20T19:44:39.817Z,5.93
2022-09-20T19:47:57.166Z,6.04
2022-09-20T19:50:54.664Z,5.75
2022-09-20T19:53:53.456Z,5.64
2022-09-20T19:56:59.417Z,5.92
2022-09-20T19:59:57.148Z,5.87
2022-09-20T20:02:54.268Z,5.54
2022-09-20T20:06:19.295Z,5.54
2022-09-20T20:09:40.700Z,5.53
2022-09-20T20:13:40.353Z,5.57
2022-09-20T20:17:10.524Z,5.45
2022-09-20T20:20:48.324Z,5.53
2022-09-20T20:24:20.575Z,5.47
2022-09-20T20:27:17.892Z,5.34
2022-09-20T20:30:14.778Z,5.44
2022-09-20T20:33:16.192Z,5.41
2022-09-20T20:36:13.146Z,5.49
2022-09-20T20:39:11.200Z,5.39
2022-09-20T20:42:11.899Z,5.42
2022-09-20T20:45:10.436Z,5.40
2022-09-20T20:48:07.250Z,5.30
2022-09-20T20:51:07.922Z,5.30
2022-09-20T20:54:05.313Z,5.27
2022-09-20T20:57:03.254Z,5.09
2022-09-20T21:00:00.630Z,5.14
2022-09-20T21:03:01.774Z,5.27
2022-09-20T21:05:58.587Z,4.98
2022-09-20T21:08:55.410Z,5.21
2022-09-20T21:11:52.572Z,5.12
2022-09-20T21:14:49.361Z,4.98
2022-09-20T21:17:53.640Z,5.11
2022-09-20T21:20:50.444Z,5.08
2022-09-20T21:23:51.674Z,5.04
2022-09-20T21:26:48.527Z,5.23
2022-09-20T21:29:45.363Z,5.38
2022-09-20T21:32:42.155Z,4.93
2022-09-20T21:35:38.925Z,4.88
2022-09-20T21:38:36.776Z,4.80
2022-09-20T21:41:37.111Z,4.84
2022-09-20T21:44:33.927Z,4.80
2022-09-20T21:47:30.712Z,4.72
2022-09-20T21:50:27.518Z,4.73
2022-09-20T21:53:24.328Z,4.76
2022-09-20T21:56:21.113Z,4.82
2022-09-20T21:59:18.522Z,4.69
2022-09-20T22:02:16.953Z,4.63
2022-09-20T22:05:13.830Z,4.60
2022-09-20T22:08:10.626Z,4.51
2022-09-20T22:11:11.186Z,4.49
2022-09-20T22:14:13.404Z,4.31
2022-09-20T22:17:10.190Z,4.32
2022-09-20T22:20:07.631Z,4.31
2022-09-20T22:23:04.430Z,3.91
2022-09-20T22:26:04.599Z,4.08
2022-09-20T22:29:02.256Z,3.86
2022-09-20T22:31:59.064Z,4.11
2022-09-20T22:34:57.759Z,3.97
2022-09-20T22:37:56.382Z,3.79
2022-09-20T22:40:55.713Z,3.96
2022-09-20T22:43:52.872Z,3.90
2022-09-20T22:46:50.697Z,4.06
2022-09-20T22:49:47.489Z,3.83
2022-09-20T22:52:44.305Z,3.95
2022-09-20T22:55:41.065Z,3.68
2022-09-20T22:58:41.463Z,3.63
2022-09-20T23:01:45.301Z,3.65
2022-09-20T23:04:42.148Z,3.62
2022-09-20T23:07:39.451Z,3.70
2022-09-20T23:10:36.226Z,3.93
2022-09-20T23:13:33.247Z,3.91
2022-09-20T23:16:35.341Z,3.93
2022-09-20T23:19:32.254Z,4.14
2022-09-20T23:22:29.026Z,4.12
2022-09-20T23:25:25.813Z,4.07
2022-09-20T23:28:23.307Z,3.96
2022-09-20T23:31:20.193Z,4.11
2022-09-20T23:34:17.713Z,3.95
2022-09-20T23:37:14.514Z,3.98
2022-09-20T23:40:11.492Z,3.97
2022-09-20T23:43:08.325Z,3.87
2022-09-20T23:46:06.193Z,3.95
2022-09-20T23:49:03.756Z,4.15
2022-09-20T23:52:00.740Z,4.26
2022-09-20T23:54:57.519Z,4.09
2022-09-20T23:57:57.661Z,4.17
